Time;durP1;ratioP1;P1;durP2;ratioP2;P2;SDS_P1;SDS_P2;PMS_P1;PMS_P2;Temp;Humidity;BMP_temperature;BMP_pressure;BME280_temperature;BME280_humidity;BME280_pressure;Samples;Min_cycle;Max_cycle;Signal;HPM_P1;HPM_P2
2022/09/28 00:00:33;;;;;;;;;;;9.40;99.90;;;;;;8452571;28;20301;-78
2022/09/28 00:09:15;;;;;;;;;;;9.40;99.90;;;;;;8444056;28;19927;-79
2022/09/28 00:13:17;;;;;;;;;;;9.40;99.90;;;;;;8478780;27;19927;-79
2022/09/28 00:17:21;;;;;;;;;;;9.40;99.90;;;;;;8439070;28;20002;-79
2022/09/28 00:21:24;;;;;;;;;;;9.40;99.90;;;;;;8454054;27;19920;-79
2022/09/28 00:25:26;;;;;;;;;;;9.40;99.90;;;;;;8455487;27;19965;-78
2022/09/28 00:29:32;;;;;;;;;;;9.30;99.90;;;;;;8459806;27;19928;-79
2022/09/28 00:33:33;;;;;;;;;;;9.30;99.90;;;;;;8458764;27;19930;-79
2022/09/28 00:37:35;;;;;;;;;;;9.30;99.90;;;;;;8454043;27;19923;-79
2022/09/28 00:41:37;;;;;;;;;;;9.30;99.90;;;;;;8466052;27;20035;-79
2022/09/28 00:45:38;;;;;;;;;;;9.20;99.90;;;;;;8456708;28;19938;-79
2022/09/28 00:49:42;;;;;;;;;;;9.20;99.90;;;;;;8439286;28;20374;-79
2022/09/28 00:53:44;;;;;;;;;;;9.20;99.90;;;;;;8438507;27;20419;-79
2022/09/28 00:57:49;;;;;;;;;;;9.10;99.90;;;;;;8440060;27;19972;-79
2022/09/28 01:01:51;;;;;;;;;;;9.10;99.90;;;;;;8436052;27;19928;-79
2022/09/28 01:05:53;;;;;;;;;;;9.10;99.90;;;;;;8455513;28;19920;-78
2022/09/28 01:09:55;;;;;;;;;;;9.10;99.90;;;;;;8431234;28;20020;-79
2022/09/28 01:13:57;;;;;;;;;;;9.00;99.90;;;;;;8459316;27;19920;-79
2022/09/28 01:18:10;;;;;;;;;;;9.10;99.90;;;;;;8431864;28;20383;-79
2022/09/28 01:22:13;;;;;;;;;;;9.00;99.90;;;;;;8428857;27;19941;-79
2022/09/28 01:26:23;;;;;;;;;;;9.00;99.90;;;;;;8444210;28;19920;-79
2022/09/28 01:30:25;;;;;;;;;;;9.00;99.90;;;;;;8455528;28;19920;-78
2022/09/28 01:34:30;;;;;;;;;;;9.00;99.90;;;;;;8459693;27;20355;-79
2022/09/28 01:38:35;;;;;;;;;;;9.00;99.90;;;;;;8454651;27;20442;-79
2022/09/28 01:42:38;;;;;;;;;;;9.00;99.90;;;;;;8454289;27;19989;-78
2022/09/28 01:46:43;;;;;;;;;;;8.90;99.90;;;;;;8442073;28;19999;-79
2022/09/28 01:50:47;;;;;;;;;;;8.90;99.90;;;;;;8443338;27;20331;-79
2022/09/28 01:54:54;;;;;;;;;;;9.00;99.90;;;;;;8451339;27;19926;-79
2022/09/28 01:59:01;;;;;;;;;;;9.00;99.90;;;;;;8454799;27;20372;-79
2022/09/28 02:03:18;;;;;;;;;;;9.00;99.90;;;;;;8455564;27;19924;-79
2022/09/28 02:07:22;;;;;;;;;;;8.90;99.90;;;;;;8453751;27;20281;-78
2022/09/28 02:11:24;;;;;;;;;;;8.90;99.90;;;;;;8452481;28;20318;-78
2022/09/28 02:15:29;;;;;;;;;;;8.80;99.90;;;;;;8462898;27;19927;-79
2022/09/28 02:19:31;;;;;;;;;;;8.80;99.90;;;;;;8449336;27;19926;-79
2022/09/28 02:23:35;;;;;;;;;;;8.70;99.90;;;;;;8440416;27;19919;-79
2022/09/28 02:27:40;;;;;;;;;;;8.70;99.90;;;;;;8450473;28;19930;-78
2022/09/28 02:31:41;;;;;;;;;;;8.70;99.90;;;;;;8432542;28;20007;-79
2022/09/28 02:35:43;;;;;;;;;;;8.70;99.90;;;;;;8459651;28;19927;-78
2022/09/28 02:39:45;;;;;;;;;;;8.70;99.90;;;;;;8448908;28;19950;-79
2022/09/28 02:43:56;;;;;;;;;;;8.70;99.90;;;;;;8448157;28;20014;-79
2022/09/28 02:48:06;;;;;;;;;;;8.70;99.90;;;;;;8456176;27;19924;-79
2022/09/28 02:52:21;;;;;;;;;;;8.80;99.90;;;;;;8465733;27;19962;-79
2022/09/28 02:56:42;;;;;;;;;;;8.80;99.90;;;;;;8461374;28;19926;-78
2022/09/28 03:00:56;;;;;;;;;;;8.90;99.90;;;;;;8460385;27;19927;-79
2022/09/28 03:05:02;;;;;;;;;;;8.90;99.90;;;;;;8462047;27;20339;-79
2022/09/28 03:09:04;;;;;;;;;;;9.00;99.90;;;;;;8479377;27;20006;-79
2022/09/28 03:13:06;;;;;;;;;;;9.00;99.90;;;;;;8435222;27;20392;-79
2022/09/28 03:17:07;;;;;;;;;;;9.00;99.90;;;;;;8446586;28;19926;-79
2022/09/28 03:21:13;;;;;;;;;;;8.90;99.90;;;;;;8449131;28;19928;-79
2022/09/28 03:25:14;;;;;;;;;;;8.80;99.90;;;;;;8465079;27;19919;-78
2022/09/28 03:29:16;;;;;;;;;;;8.80;99.90;;;;;;8456396;27;19920;-79
2022/09/28 03:33:18;;;;;;;;;;;8.70;99.90;;;;;;8444107;27;19923;-79
2022/09/28 03:37:20;;;;;;;;;;;8.70;99.90;;;;;;8446522;28;19928;-79
2022/09/28 03:41:26;;;;;;;;;;;8.60;99.90;;;;;;8454805;27;19923;-79
2022/09/28 03:45:28;;;;;;;;;;;8.60;99.90;;;;;;8468575;27;19924;-79
2022/09/28 03:49:29;;;;;;;;;;;8.50;99.90;;;;;;8463207;27;19924;-78
2022/09/28 03:53:32;;;;;;;;;;;8.50;99.90;;;;;;8453504;27;20431;-79
2022/09/28 03:57:33;;;;;;;;;;;8.40;99.90;;;;;;8446791;28;20347;-78
2022/09/28 04:01:35;;;;;;;;;;;8.30;99.90;;;;;;8457681;27;19940;-79
2022/09/28 04:05:36;;;;;;;;;;;8.30;99.90;;;;;;8464850;27;19928;-79
2022/09/28 04:09:38;;;;;;;;;;;8.30;99.90;;;;;;8451140;28;20003;-78
2022/09/28 04:13:40;;;;;;;;;;;8.20;99.90;;;;;;8454872;28;19927;-79
2022/09/28 04:17:41;;;;;;;;;;;8.20;99.90;;;;;;8449563;27;20023;-79
2022/09/28 04:21:43;;;;;;;;;;;8.20;99.90;;;;;;8471554;27;19926;-79
2022/09/28 04:36:18;;;;;;;;;;;8.10;99.90;;;;;;8422564;28;20155;-79
2022/09/28 04:40:20;;;;;;;;;;;8.00;99.90;;;;;;8412864;28;20335;-79
2022/09/28 04:44:21;;;;;;;;;;;8.00;99.90;;;;;;8412010;28;19919;-79
2022/09/28 04:48:23;;;;;;;;;;;7.90;99.90;;;;;;8420112;28;19942;-79
2022/09/28 04:52:26;;;;;;;;;;;7.90;99.90;;;;;;8413312;28;19938;-78
2022/09/28 04:56:27;;;;;;;;;;;7.90;99.90;;;;;;8401702;28;20010;-79
2022/09/28 05:00:31;;;;;;;;;;;7.90;99.90;;;;;;8446376;28;19926;-78
2022/09/28 05:04:33;;;;;;;;;;;7.90;99.90;;;;;;8433820;28;19926;-79
2022/09/28 05:08:35;;;;;;;;;;;7.80;99.90;;;;;;8417078;28;19927;-79
2022/09/28 05:12:36;;;;;;;;;;;7.80;99.90;;;;;;8432807;28;19919;-79
2022/09/28 05:16:38;;;;;;;;;;;7.80;99.90;;;;;;8429122;27;19921;-78
2022/09/28 05:20:41;;;;;;;;;;;7.80;99.90;;;;;;8448701;27;19920;-78
2022/09/28 05:24:42;;;;;;;;;;;7.70;99.90;;;;;;8430153;28;20023;-78
2022/09/28 05:28:44;;;;;;;;;;;7.70;99.90;;;;;;8428031;28;19920;-78
2022/09/28 05:32:45;;;;;;;;;;;7.70;99.90;;;;;;8441671;28;19920;-79
2022/09/28 05:36:47;;;;;;;;;;;7.70;99.90;;;;;;8440650;28;19920;-78
2022/09/28 05:40:49;;;;;;;;;;;7.60;99.90;;;;;;8427777;28;20359;-79
2022/09/28 05:44:51;;;;;;;;;;;7.60;99.90;;;;;;8422586;28;20322;-79
2022/09/28 05:48:53;;;;;;;;;;;7.60;99.90;;;;;;8441784;28;19920;-79
2022/09/28 05:53:02;;;;;;;;;;;7.60;99.90;;;;;;8428995;28;19931;-79
2022/09/28 05:57:04;;;;;;;;;;;7.50;99.90;;;;;;8435666;28;19920;-79
2022/09/28 06:01:05;;;;;;;;;;;7.50;99.90;;;;;;8415596;28;20401;-78
2022/09/28 06:05:07;;;;;;;;;;;7.50;99.90;;;;;;8409358;28;19928;-79
2022/09/28 06:09:09;;;;;;;;;;;7.40;99.90;;;;;;8426512;28;19926;-78
2022/09/28 06:13:10;;;;;;;;;;;7.40;99.90;;;;;;8427008;28;20546;-78
2022/09/28 06:17:12;;;;;;;;;;;7.40;99.90;;;;;;8423500;28;19967;-78
2022/09/28 06:21:14;;;;;;;;;;;7.40;99.90;;;;;;8422342;28;19930;-79
2022/09/28 06:25:15;;;;;;;;;;;7.40;99.90;;;;;;8430843;28;19920;-79
2022/09/28 06:29:18;;;;;;;;;;;7.50;99.90;;;;;;8430534;28;19920;-79
2022/09/28 06:33:20;;;;;;;;;;;7.50;99.90;;;;;;8436671;28;20435;-78
2022/09/28 06:37:24;;;;;;;;;;;7.60;99.90;;;;;;8444412;28;19938;-78
2022/09/28 06:41:26;;;;;;;;;;;7.70;99.90;;;;;;8412846;28;19924;-79
2022/09/28 06:45:28;;;;;;;;;;;7.70;99.90;;;;;;8455397;28;19924;-79
2022/09/28 06:49:30;;;;;;;;;;;7.80;99.90;;;;;;8414013;28;19931;-79
2022/09/28 06:53:31;;;;;;;;;;;7.90;99.90;;;;;;8456474;28;19930;-78
2022/09/28 06:57:33;;;;;;;;;;;7.90;99.90;;;;;;8447166;28;20376;-79
2022/09/28 07:01:35;;;;;;;;;;;8.00;99.90;;;;;;8446408;28;19972;-79
2022/09/28 07:05:40;;;;;;;;;;;8.20;99.90;;;;;;8438704;28;19920;-78
2022/09/28 07:09:41;;;;;;;;;;;8.30;99.90;;;;;;8431604;28;19920;-79
2022/09/28 07:13:48;;;;;;;;;;;8.40;99.90;;;;;;8435769;28;19942;-79
2022/09/28 07:18:02;;;;;;;;;;;8.50;99.90;;;;;;8419338;28;19959;-79
2022/09/28 07:22:04;;;;;;;;;;;8.60;99.90;;;;;;8436108;28;19920;-79
2022/09/28 07:26:06;;;;;;;;;;;8.70;99.90;;;;;;8431269;28;19920;-79
2022/09/28 07:30:10;;;;;;;;;;;8.90;99.90;;;;;;8419747;28;20389;-79
2022/09/28 07:34:12;;;;;;;;;;;9.00;99.90;;;;;;8446215;28;20037;-79
2022/09/28 07:38:14;;;;;;;;;;;9.20;99.90;;;;;;8447988;28;19978;-79
2022/09/28 07:42:15;;;;;;;;;;;9.40;99.90;;;;;;8428548;28;19930;-79
2022/09/28 07:46:17;;;;;;;;;;;9.50;99.90;;;;;;8451362;28;19920;-79
2022/09/28 07:50:20;;;;;;;;;;;9.70;99.90;;;;;;8437437;28;19927;-79
2022/09/28 07:54:21;;;;;;;;;;;9.90;99.90;;;;;;8441047;28;19919;-78
2022/09/28 07:58:23;;;;;;;;;;;10.00;99.90;;;;;;8445895;28;19920;-79
2022/09/28 08:02:25;;;;;;;;;;;10.10;99.90;;;;;;8435781;28;19920;-79
2022/09/28 08:06:28;;;;;;;;;;;10.30;99.90;;;;;;8437740;28;19934;-79
2022/09/28 08:10:30;;;;;;;;;;;10.40;99.90;;;;;;8429227;28;19923;-79
2022/09/28 08:14:33;;;;;;;;;;;10.50;99.90;;;;;;8421329;28;20273;-79
2022/09/28 08:18:34;;;;;;;;;;;10.60;99.90;;;;;;8425660;28;19981;-79
2022/09/28 08:22:37;;;;;;;;;;;10.80;99.90;;;;;;8439795;28;20366;-79
2022/09/28 08:26:39;;;;;;;;;;;10.90;99.90;;;;;;8476897;27;19920;-79
2022/09/28 08:30:40;;;;;;;;;;;11.00;99.90;;;;;;8410859;28;19938;-79
2022/09/28 08:34:42;;;;;;;;;;;11.10;99.90;;;;;;8430508;28;20396;-78
2022/09/28 08:38:44;;;;;;;;;;;11.20;99.90;;;;;;8419492;28;19930;-79
2022/09/28 08:42:47;;;;;;;;;;;11.30;99.90;;;;;;8443438;28;20026;-78
2022/09/28 08:46:52;;;;;;;;;;;11.40;99.90;;;;;;8430456;28;20514;-79
2022/09/28 08:50:58;;;;;;;;;;;11.50;99.90;;;;;;8407471;28;19924;-79
2022/09/28 08:55:06;;;;;;;;;;;11.60;99.90;;;;;;8457293;28;20014;-78
2022/09/28 08:59:12;;;;;;;;;;;11.80;99.90;;;;;;8433425;28;19928;-79
2022/09/28 09:03:20;;;;;;;;;;;11.90;99.90;;;;;;8425997;28;19931;-78
2022/09/28 09:07:40;;;;;;;;;;;11.90;99.90;;;;;;8426523;28;20382;-79
2022/09/28 09:11:50;;;;;;;;;;;12.00;99.90;;;;;;8424259;28;19966;-79
2022/09/28 09:15:56;;;;;;;;;;;12.20;99.90;;;;;;8429277;28;20382;-78
2022/09/28 09:20:03;;;;;;;;;;;12.30;99.90;;;;;;8434030;28;19920;-79
2022/09/28 09:24:25;;;;;;;;;;;12.40;99.90;;;;;;8433537;28;19930;-79
2022/09/28 09:28:30;;;;;;;;;;;12.60;99.90;;;;;;8428508;28;19927;-79
2022/09/28 09:32:52;;;;;;;;;;;12.60;99.90;;;;;;8424031;28;19938;-78
2022/09/28 09:37:06;;;;;;;;;;;12.50;99.90;;;;;;8411463;28;20338;-78
2022/09/28 09:41:22;;;;;;;;;;;12.50;99.90;;;;;;8457374;27;19977;-79
2022/09/28 09:45:34;;;;;;;;;;;12.50;99.90;;;;;;8418151;28;19920;-78
2022/09/28 09:49:42;;;;;;;;;;;12.50;99.90;;;;;;8440489;28;19919;-78
2022/09/28 09:53:54;;;;;;;;;;;12.60;99.90;;;;;;8447997;28;19982;-78
2022/09/28 09:57:55;;;;;;;;;;;12.70;99.90;;;;;;8426832;28;20281;-77
2022/09/28 10:01:57;;;;;;;;;;;12.80;99.90;;;;;;8446847;28;20379;-78
2022/09/28 10:06:02;;;;;;;;;;;12.90;99.90;;;;;;8433687;28;19969;-78
2022/09/28 10:10:13;;;;;;;;;;;13.00;99.90;;;;;;8439563;28;19992;-78
2022/09/28 10:14:15;;;;;;;;;;;13.10;99.90;;;;;;8434728;28;19924;-78
2022/09/28 10:18:18;;;;;;;;;;;13.10;99.90;;;;;;8410169;28;19968;-77
2022/09/28 10:22:21;;;;;;;;;;;13.30;99.90;;;;;;8412178;28;20047;-77
2022/09/28 10:26:26;;;;;;;;;;;13.40;99.90;;;;;;8392734;28;20470;-77
2022/09/28 10:30:27;;;;;;;;;;;13.40;99.90;;;;;;8402072;28;19928;-77
2022/09/28 10:34:29;;;;;;;;;;;13.40;99.90;;;;;;8393363;28;20027;-77
2022/09/28 10:38:32;;;;;;;;;;;13.50;99.90;;;;;;8401661;28;19931;-77
2022/09/28 10:42:35;;;;;;;;;;;13.60;99.90;;;;;;8397696;28;20026;-77
2022/09/28 10:46:37;;;;;;;;;;;13.70;99.90;;;;;;8400730;28;20122;-77
2022/09/28 10:50:39;;;;;;;;;;;13.90;99.90;;;;;;8400078;28;20047;-77
2022/09/28 10:54:51;;;;;;;;;;;14.20;99.90;;;;;;8399943;28;19948;-77
2022/09/28 10:58:52;;;;;;;;;;;14.50;99.90;;;;;;8386112;28;19956;-77
2022/09/28 11:02:54;;;;;;;;;;;14.70;99.90;;;;;;8397952;28;19927;-77
2022/09/28 11:06:57;;;;;;;;;;;14.70;99.90;;;;;;8404461;28;19932;-77
2022/09/28 11:11:02;;;;;;;;;;;14.60;99.90;;;;;;8404653;28;19979;-77
2022/09/28 11:15:05;;;;;;;;;;;14.50;99.90;;;;;;8399610;28;19932;-78
2022/09/28 11:19:19;;;;;;;;;;;14.50;99.90;;;;;;8409270;28;19983;-78
2022/09/28 11:23:25;;;;;;;;;;;14.60;99.90;;;;;;8399456;28;20027;-78
2022/09/28 11:27:27;;;;;;;;;;;14.50;99.90;;;;;;8385597;28;20422;-78
2022/09/28 11:31:30;;;;;;;;;;;14.40;99.90;;;;;;8407473;28;19976;-78
2022/09/28 11:35:53;;;;;;;;;;;14.50;99.90;;;;;;8405664;28;20392;-78
2022/09/28 11:40:10;;;;;;;;;;;14.80;99.90;;;;;;8406481;28;20387;-78
2022/09/28 11:44:30;;;;;;;;;;;15.00;99.90;;;;;;8410556;28;19928;-78
2022/09/28 11:48:46;;;;;;;;;;;15.10;99.90;;;;;;8418197;27;20429;-78
2022/09/28 11:52:53;;;;;;;;;;;14.90;99.90;;;;;;8408968;28;19942;-78
2022/09/28 11:56:56;;;;;;;;;;;14.70;99.90;;;;;;8397184;28;19990;-78
2022/09/28 12:01:03;;;;;;;;;;;14.40;99.90;;;;;;8381523;28;19924;-78
2022/09/28 12:05:20;;;;;;;;;;;14.20;99.90;;;;;;8414955;28;19954;-78
2022/09/28 12:09:26;;;;;;;;;;;14.10;99.90;;;;;;8402053;28;19924;-78
2022/09/28 12:13:37;;;;;;;;;;;13.90;99.90;;;;;;8404346;28;19939;-78
2022/09/28 12:17:41;;;;;;;;;;;13.90;99.90;;;;;;8405614;28;19931;-78
2022/09/28 12:21:50;;;;;;;;;;;13.80;99.90;;;;;;8405638;28;20330;-78
2022/09/28 12:25:56;;;;;;;;;;;13.60;99.90;;;;;;8400799;28;19979;-78
2022/09/28 12:30:00;;;;;;;;;;;13.30;99.90;;;;;;8410607;28;20298;-78
2022/09/28 12:34:03;;;;;;;;;;;13.10;99.90;;;;;;8394946;28;20511;-78
2022/09/28 12:38:17;;;;;;;;;;;12.90;99.90;;;;;;8406086;28;19932;-77
2022/09/28 12:42:33;;;;;;;;;;;12.80;99.90;;;;;;8400399;28;19928;-78
2022/09/28 12:46:47;;;;;;;;;;;12.70;99.90;;;;;;8409856;28;19932;-78
2022/09/28 12:51:01;;;;;;;;;;;12.80;99.90;;;;;;8402568;28;19940;-78
2022/09/28 12:55:15;;;;;;;;;;;12.80;99.90;;;;;;8400204;28;19928;-78
2022/09/28 12:59:20;;;;;;;;;;;12.80;99.90;;;;;;8401032;28;19924;-78
2022/09/28 13:03:44;;;;;;;;;;;12.80;99.90;;;;;;8395453;28;23351;-79
2022/09/28 13:08:01;;;;;;;;;;;12.80;99.90;;;;;;8385012;28;19944;-79
2022/09/28 13:12:10;;;;;;;;;;;12.60;99.90;;;;;;8402496;28;19928;-79
2022/09/28 13:16:11;;;;;;;;;;;12.30;99.90;;;;;;8385853;28;20389;-79
2022/09/28 13:20:22;;;;;;;;;;;11.90;99.90;;;;;;8403215;28;20050;-79
2022/09/28 13:24:26;;;;;;;;;;;11.70;99.90;;;;;;8394716;28;20405;-79
2022/09/28 13:28:34;;;;;;;;;;;11.30;99.90;;;;;;8396828;28;19975;-79
2022/09/28 13:32:37;;;;;;;;;;;11.20;99.90;;;;;;8385579;28;20074;-78
2022/09/28 13:36:39;;;;;;;;;;;11.20;99.90;;;;;;8378848;28;19938;-79
2022/09/28 13:41:02;;;;;;;;;;;11.20;99.90;;;;;;8398183;28;19998;-79
2022/09/28 13:45:03;;;;;;;;;;;11.20;99.90;;;;;;8393376;28;19928;-78
2022/09/28 13:49:17;;;;;;;;;;;11.30;99.90;;;;;;8392097;28;19970;-78
2022/09/28 13:53:27;;;;;;;;;;;11.30;99.90;;;;;;8401167;28;19929;-78
2022/09/28 13:57:38;;;;;;;;;;;11.30;99.90;;;;;;8406929;28;20008;-79
2022/09/28 14:02:06;;;;;;;;;;;11.40;99.90;;;;;;8400068;28;19928;-78
2022/09/28 14:06:20;;;;;;;;;;;11.50;99.90;;;;;;8372517;28;19928;-79
2022/09/28 14:10:25;;;;;;;;;;;11.60;99.90;;;;;;8395816;28;19924;-78
2022/09/28 14:14:28;;;;;;;;;;;11.70;99.90;;;;;;8398026;28;19934;-78
2022/09/28 14:18:31;;;;;;;;;;;11.80;99.90;;;;;;8396714;28;19959;-78
2022/09/28 14:22:35;;;;;;;;;;;11.90;99.90;;;;;;8399229;28;19931;-78
2022/09/28 14:26:55;;;;;;;;;;;12.00;99.90;;;;;;8401970;28;19928;-78
2022/09/28 14:30:57;;;;;;;;;;;12.00;99.90;;;;;;8390828;28;20011;-78
2022/09/28 14:35:02;;;;;;;;;;;12.10;99.90;;;;;;8379801;28;20371;-78
2022/09/28 14:43:33;;;;;;;;;;;12.20;99.90;;;;;;8389599;28;20292;-79
2022/09/28 14:47:42;;;;;;;;;;;12.20;99.90;;;;;;8384407;28;19924;-78
2022/09/28 14:51:47;;;;;;;;;;;12.20;99.90;;;;;;8410143;28;20348;-78
2022/09/28 14:55:52;;;;;;;;;;;12.20;99.90;;;;;;8388477;28;20018;-78
2022/09/28 14:59:54;;;;;;;;;;;12.30;99.90;;;;;;8380033;28;19931;-78
2022/09/28 15:03:58;;;;;;;;;;;12.30;99.90;;;;;;8399242;28;20291;-78
2022/09/28 15:08:00;;;;;;;;;;;12.30;99.90;;;;;;8399506;28;19928;-78
2022/09/28 15:12:11;;;;;;;;;;;12.30;99.90;;;;;;8394703;28;19989;-78
2022/09/28 15:16:15;;;;;;;;;;;12.30;99.90;;;;;;8408630;28;20306;-78
2022/09/28 15:20:24;;;;;;;;;;;12.40;99.90;;;;;;8400337;28;19928;-79
2022/09/28 15:24:27;;;;;;;;;;;12.40;99.90;;;;;;8397022;28;19928;-78
2022/09/28 15:28:29;;;;;;;;;;;12.50;99.90;;;;;;8400771;28;20406;-78
2022/09/28 15:32:31;;;;;;;;;;;12.50;99.90;;;;;;8416743;28;20015;-78
2022/09/28 15:36:40;;;;;;;;;;;12.60;99.90;;;;;;8403040;28;19932;-79
2022/09/28 15:40:43;;;;;;;;;;;12.70;99.90;;;;;;8392722;28;19925;-79
2022/09/28 15:45:12;;;;;;;;;;;12.80;99.90;;;;;;8400029;28;20426;-78
2022/09/28 15:49:21;;;;;;;;;;;12.90;99.90;;;;;;8394555;28;19931;-79
2022/09/28 15:53:24;;;;;;;;;;;13.00;99.90;;;;;;8401172;28;19938;-78
2022/09/28 15:57:31;;;;;;;;;;;13.10;99.90;;;;;;8402785;28;19932;-79
2022/09/28 16:01:35;;;;;;;;;;;13.20;99.90;;;;;;8408613;28;19956;-79
2022/09/28 16:05:45;;;;;;;;;;;13.30;99.90;;;;;;8408295;28;19936;-78
2022/09/28 16:10:06;;;;;;;;;;;13.30;99.90;;;;;;8422893;27;19924;-79
2022/09/28 16:14:17;;;;;;;;;;;13.30;99.90;;;;;;8396159;28;19960;-79
2022/09/28 16:18:20;;;;;;;;;;;13.30;99.90;;;;;;8401672;28;20022;-79
2022/09/28 16:22:22;;;;;;;;;;;13.30;99.90;;;;;;8408064;28;19928;-78
2022/09/28 16:26:36;;;;;;;;;;;13.40;99.90;;;;;;8392231;28;20407;-77
2022/09/28 16:30:58;;;;;;;;;;;13.40;99.90;;;;;;8397979;28;19924;-78
2022/09/28 16:35:11;;;;;;;;;;;13.30;99.90;;;;;;8398846;28;19931;-79
2022/09/28 16:39:15;;;;;;;;;;;13.30;99.90;;;;;;8400433;28;20022;-78
2022/09/28 16:43:19;;;;;;;;;;;13.20;99.90;;;;;;8398156;28;19929;-78
2022/09/28 16:47:21;;;;;;;;;;;13.20;99.90;;;;;;8377270;28;19924;-78
2022/09/28 16:51:23;;;;;;;;;;;13.10;99.90;;;;;;8399796;28;19928;-79
2022/09/28 16:55:25;;;;;;;;;;;13.00;99.90;;;;;;8396610;28;20008;-79
2022/09/28 16:59:40;;;;;;;;;;;12.90;99.90;;;;;;8398664;28;19927;-79
2022/09/28 17:03:45;;;;;;;;;;;12.80;99.90;;;;;;8394340;28;20280;-79
2022/09/28 17:07:57;;;;;;;;;;;12.60;99.90;;;;;;8415902;27;20535;-79
2022/09/28 17:12:00;;;;;;;;;;;12.50;99.90;;;;;;8380692;28;20382;-79
2022/09/28 17:16:07;;;;;;;;;;;12.30;99.90;;;;;;8394898;28;20006;-79
2022/09/28 17:20:19;;;;;;;;;;;12.20;99.90;;;;;;8395304;28;20019;-79
2022/09/28 17:24:20;;;;;;;;;;;12.10;99.90;;;;;;8397043;28;20387;-79
2022/09/28 17:28:24;;;;;;;;;;;12.00;99.90;;;;;;8405472;28;19981;-79
2022/09/28 17:32:25;;;;;;;;;;;11.90;99.90;;;;;;8404719;28;20023;-79
2022/09/28 17:36:29;;;;;;;;;;;11.80;99.90;;;;;;8399417;28;19932;-79
2022/09/28 17:40:30;;;;;;;;;;;11.70;99.90;;;;;;8397502;28;19959;-79
2022/09/28 17:44:32;;;;;;;;;;;11.70;99.90;;;;;;8405797;28;20019;-79
2022/09/28 17:48:34;;;;;;;;;;;11.60;99.90;;;;;;8403587;28;20027;-79
2022/09/28 17:52:35;;;;;;;;;;;11.60;99.90;;;;;;8397359;28;19928;-78
2022/09/28 17:56:37;;;;;;;;;;;11.50;99.90;;;;;;8399554;28;20399;-79
2022/09/28 18:00:39;;;;;;;;;;;11.40;99.90;;;;;;8393220;28;19939;-78
2022/09/28 18:04:40;;;;;;;;;;;11.30;99.90;;;;;;8386442;28;20027;-79
2022/09/28 18:08:52;;;;;;;;;;;11.30;99.90;;;;;;8398303;28;19979;-79
2022/09/28 18:12:54;;;;;;;;;;;11.20;99.90;;;;;;8398252;28;19958;-79
2022/09/28 18:16:55;;;;;;;;;;;11.20;99.90;;;;;;8394335;28;19928;-79
2022/09/28 18:20:58;;;;;;;;;;;11.10;99.90;;;;;;8400717;28;19928;-79
2022/09/28 18:25:00;;;;;;;;;;;11.10;99.90;;;;;;8398652;28;20271;-79
2022/09/28 18:29:02;;;;;;;;;;;11.10;99.90;;;;;;8394833;28;20410;-78
2022/09/28 18:33:03;;;;;;;;;;;11.00;99.90;;;;;;8408103;28;19932;-79
2022/09/28 18:37:05;;;;;;;;;;;11.00;99.90;;;;;;8401259;28;19928;-79
2022/09/28 18:41:13;;;;;;;;;;;10.90;99.90;;;;;;8397932;28;19925;-78
2022/09/28 18:45:16;;;;;;;;;;;10.90;99.90;;;;;;8390939;28;19928;-79
2022/09/28 18:49:17;;;;;;;;;;;10.90;99.90;;;;;;8391751;28;19928;-79
2022/09/28 18:53:19;;;;;;;;;;;10.80;99.90;;;;;;8394291;28;19931;-79
2022/09/28 18:57:21;;;;;;;;;;;10.80;99.90;;;;;;8391373;28;19972;-79
2022/09/28 19:01:23;;;;;;;;;;;10.70;99.90;;;;;;8387205;28;20654;-79
2022/09/28 19:05:33;;;;;;;;;;;10.70;99.90;;;;;;8385120;28;20254;-79
2022/09/28 19:09:35;;;;;;;;;;;10.70;99.90;;;;;;8390677;28;19928;-78
2022/09/28 19:13:37;;;;;;;;;;;10.60;99.90;;;;;;8392693;28;20609;-79
2022/09/28 19:17:39;;;;;;;;;;;10.60;99.90;;;;;;8391030;28;19924;-79
2022/09/28 19:21:42;;;;;;;;;;;10.50;99.90;;;;;;8392717;28;20533;-79
2022/09/28 19:25:43;;;;;;;;;;;10.50;99.90;;;;;;8385443;28;20389;-79
2022/09/28 19:29:45;;;;;;;;;;;10.50;99.90;;;;;;8387321;28;20399;-79
2022/09/28 19:33:47;;;;;;;;;;;10.40;99.90;;;;;;8405644;27;20845;-79
2022/09/28 19:37:50;;;;;;;;;;;10.40;99.90;;;;;;8417701;27;19932;-79
2022/09/28 19:41:51;;;;;;;;;;;10.40;99.90;;;;;;8400855;28;19931;-79
2022/09/28 19:45:55;;;;;;;;;;;10.40;99.90;;;;;;8395657;28;20279;-79
2022/09/28 19:49:56;;;;;;;;;;;10.40;99.90;;;;;;8400972;28;19936;-79
2022/09/28 19:54:02;;;;;;;;;;;10.30;99.90;;;;;;8392190;28;19931;-79
2022/09/28 19:58:03;;;;;;;;;;;10.40;99.90;;;;;;8399899;28;19924;-79
2022/09/28 20:02:06;;;;;;;;;;;10.40;99.90;;;;;;8402952;28;19928;-78
2022/09/28 20:06:07;;;;;;;;;;;10.40;99.90;;;;;;8398085;28;20390;-78
2022/09/28 20:10:10;;;;;;;;;;;10.40;99.90;;;;;;8393516;28;19987;-78
2022/09/28 20:14:17;;;;;;;;;;;10.40;99.90;;;;;;8399622;28;20050;-79
2022/09/28 20:18:18;;;;;;;;;;;10.30;99.90;;;;;;8396931;28;20014;-79
2022/09/28 20:22:20;;;;;;;;;;;10.30;99.90;;;;;;8399856;28;19928;-79
2022/09/28 20:26:22;;;;;;;;;;;10.30;99.90;;;;;;8390141;28;20335;-78
2022/09/28 20:30:24;;;;;;;;;;;10.20;99.90;;;;;;8384637;28;19924;-79
2022/09/28 20:34:25;;;;;;;;;;;10.10;99.90;;;;;;8379594;28;19947;-78
2022/09/28 20:38:27;;;;;;;;;;;10.00;99.90;;;;;;8399194;28;19932;-79
2022/09/28 20:42:30;;;;;;;;;;;10.00;99.90;;;;;;8412564;27;19924;-79
2022/09/28 20:46:33;;;;;;;;;;;9.90;99.90;;;;;;8398703;28;20482;-79
2022/09/28 20:50:35;;;;;;;;;;;9.90;99.90;;;;;;8394774;28;19929;-79
2022/09/28 20:54:36;;;;;;;;;;;9.80;99.90;;;;;;8387283;28;19947;-78
2022/09/28 20:58:39;;;;;;;;;;;9.80;99.90;;;;;;8405364;27;19928;-78
2022/09/28 21:02:40;;;;;;;;;;;9.70;99.90;;;;;;8400089;28;20020;-78
2022/09/28 21:06:42;;;;;;;;;;;9.60;99.90;;;;;;8415251;28;19928;-79
2022/09/28 21:10:44;;;;;;;;;;;9.60;99.90;;;;;;8423693;28;19991;-79
2022/09/28 21:14:46;;;;;;;;;;;9.50;99.90;;;;;;8420881;28;19930;-79
2022/09/28 21:18:47;;;;;;;;;;;9.50;99.90;;;;;;8407488;28;19925;-79
2022/09/28 21:22:49;;;;;;;;;;;9.40;99.90;;;;;;8413949;28;19924;-78
2022/09/28 21:26:50;;;;;;;;;;;9.40;99.90;;;;;;8402673;28;20261;-78
2022/09/28 21:30:52;;;;;;;;;;;9.40;99.90;;;;;;8422234;28;19927;-78
2022/09/28 21:34:54;;;;;;;;;;;9.30;99.90;;;;;;8432215;27;19946;-79
2022/09/28 21:38:56;;;;;;;4.55;2.00;;;9.30;99.90;;;;;;8363139;28;20047;-78
2022/09/28 21:42:58;;;;;;;4.20;2.20;;;9.30;99.90;;;;;;8368824;28;20047;-78
2022/09/28 21:47:00;;;;;;;4.05;2.00;;;9.20;99.90;;;;;;8384224;28;20552;-78
2022/09/28 21:51:04;;;;;;;6.47;2.33;;;9.20;99.90;;;;;;8394325;28;20495;-78
2022/09/28 21:55:06;;;;;;;4.10;1.88;;;9.20;99.90;;;;;;8370231;28;20123;-78
2022/09/28 21:59:08;;;;;;;4.35;2.00;;;9.10;99.90;;;;;;8370143;28;20056;-78
2022/09/28 22:03:10;;;;;;;4.07;2.22;;;9.10;99.90;;;;;;8373613;28;20128;-78
2022/09/28 22:07:11;;;;;;;4.38;2.10;;;9.10;99.90;;;;;;8394446;28;20055;-78
2022/09/28 22:11:17;;;;;;;4.40;2.30;;;9.00;99.90;;;;;;8375618;28;20047;-78
2022/09/28 22:15:19;;;;;;;8.35;2.38;;;9.00;99.90;;;;;;8389711;28;20056;-78
2022/09/28 22:19:21;;;;;;;5.00;2.20;;;8.90;99.90;;;;;;8389299;28;20056;-79
2022/09/28 22:23:22;;;;;;;5.15;2.25;;;8.90;99.90;;;;;;8381001;28;20048;-78
2022/09/28 22:27:24;;;;;;;4.90;2.70;;;8.80;99.90;;;;;;8391839;28;20048;-78
2022/09/28 22:31:31;;;;;;;4.13;2.20;;;8.80;99.90;;;;;;8381955;28;20049;-79
2022/09/28 22:35:33;;;;;;;4.30;2.38;;;8.80;99.90;;;;;;8390166;28;20052;-79
2022/09/28 22:39:35;;;;;;;5.20;2.60;;;8.80;99.90;;;;;;8369067;28;20506;-79
2022/09/28 22:43:38;;;;;;;6.10;2.88;;;8.70;99.90;;;;;;8381606;28;20051;-78
2022/09/28 22:47:40;;;;;;;;;;;8.70;99.90;;;;;;8394315;28;20139;-78
2022/09/28 22:51:41;;;;;;;;;;;8.60;99.90;;;;;;8404641;28;19989;-78
2022/09/28 22:55:43;;;;;;;;;;;8.60;99.90;;;;;;8411917;28;19942;-78
2022/09/28 22:59:44;;;;;;;4.95;2.85;;;8.50;99.90;;;;;;8392834;28;19920;-79
2022/09/28 23:03:47;;;;;;;;;;;8.40;99.90;;;;;;8394508;28;20458;-78
2022/09/28 23:07:48;;;;;;;;;;;8.40;99.90;;;;;;8417279;28;20022;-78
2022/09/28 23:11:50;;;;;;;;;;;8.30;99.90;;;;;;8386630;28;19930;-79
2022/09/28 23:16:02;;;;;;;;;;;8.30;99.90;;;;;;8400206;28;19931;-78
2022/09/28 23:20:03;;;;;;;;;;;8.30;99.90;;;;;;8409502;28;19924;-79
2022/09/28 23:24:05;;;;;;;;;;;8.20;99.90;;;;;;8388664;28;19931;-78
2022/09/28 23:28:07;;;;;;;;;;;8.20;99.90;;;;;;8404783;28;19927;-78
2022/09/28 23:32:08;;;;;;;;;;;8.20;99.90;;;;;;8406179;28;20178;-78
2022/09/28 23:36:10;;;;;;;;;;;8.10;99.90;;;;;;8419955;28;19930;-78
2022/09/28 23:40:12;;;;;;;;;;;8.10;99.90;;;;;;8438178;28;19936;-78
2022/09/28 23:44:13;;;;;;;;;;;8.10;99.90;;;;;;8427687;28;20315;-78
2022/09/28 23:48:15;;;;;;;;;;;8.00;99.90;;;;;;8440950;28;19923;-79
2022/09/28 23:52:16;;;;;;;;;;;7.90;99.90;;;;;;8454587;28;20011;-78
2022/09/28 23:56:18;;;;;;;;;;;7.90;99.90;;;;;;8409983;28;20371;-78
